createdAt,value
2023-01-19T00:02:35.314Z,98905.80
2023-01-19T00:05:15.107Z,98912.00
2023-01-19T00:07:52.945Z,98913.60
2023-01-19T00:10:30.754Z,98918.40
2023-01-19T00:13:08.243Z,98926.40
2023-01-19T00:15:45.624Z,98923.80
2023-01-19T00:18:22.350Z,98917.80
2023-01-19T00:20:59.285Z,98916.20
2023-01-19T00:23:36.298Z,98918.40
2023-01-19T00:26:13.908Z,98916.80
2023-01-19T00:28:53.415Z,98916.80
2023-01-19T00:31:30.331Z,98912.00
2023-01-19T00:34:07.303Z,98908.40
2023-01-19T00:36:45.132Z,98911.20
2023-01-19T00:39:26.173Z,98906.60
2023-01-19T00:42:20.202Z,98900.80
2023-01-19T00:44:57.466Z,98895.80
2023-01-19T00:47:34.737Z,98894.60
2023-01-19T00:50:19.879Z,98890.80
2023-01-19T00:52:57.732Z,98886.20
2023-01-19T00:55:35.646Z,98885.00
2023-01-19T00:58:12.846Z,98887.80
2023-01-19T01:00:50.256Z,98881.00
2023-01-19T01:03:28.424Z,98882.20
2023-01-19T01:06:04.477Z,98881.40
2023-01-19T01:08:41.437Z,98885.60
2023-01-19T01:11:18.959Z,98891.60
2023-01-19T01:13:55.475Z,98890.20
2023-01-19T01:16:32.334Z,98891.60
2023-01-19T01:19:09.056Z,98891.00
2023-01-19T01:21:47.018Z,98892.40
2023-01-19T01:24:23.942Z,98893.20
2023-01-19T01:27:00.978Z,98893.00
2023-01-19T01:29:38.304Z,98897.00
2023-01-19T01:32:15.176Z,98898.60
2023-01-19T01:34:52.601Z,98902.00
2023-01-19T01:37:29.898Z,98902.60
2023-01-19T01:40:08.242Z,98901.60
2023-01-19T01:42:44.605Z,98902.80
2023-01-19T01:45:42.863Z,98910.40
2023-01-19T01:48:25.649Z,98908.40
2023-01-19T01:51:26.878Z,98910.20
2023-01-19T01:54:25.769Z,98909.00
2023-01-19T01:57:12.814Z,98904.60
2023-01-19T01:59:54.072Z,98906.00
2023-01-19T02:02:53.819Z,98901.00
2023-01-19T02:05:36.863Z,98897.60
2023-01-19T02:08:35.897Z,98899.20
2023-01-19T02:11:31.012Z,98888.60
2023-01-19T02:14:10.113Z,98891.60
2023-01-19T02:16:47.920Z,98889.20
2023-01-19T02:19:29.712Z,98894.00
2023-01-19T02:22:14.468Z,98891.40
2023-01-19T02:24:56.470Z,98889.60
2023-01-19T02:27:34.521Z,98888.40
2023-01-19T02:30:21.785Z,98891.00
2023-01-19T02:33:00.190Z,98896.60
2023-01-19T02:35:40.778Z,98900.60
2023-01-19T02:38:20.503Z,98904.00
2023-01-19T02:40:57.974Z,98908.60
2023-01-19T02:43:38.375Z,98901.20
2023-01-19T02:46:15.979Z,98890.20
2023-01-19T02:48:52.927Z,98882.60
2023-01-19T02:51:31.765Z,98880.80
2023-01-19T02:54:45.521Z,98886.60
2023-01-19T02:57:52.897Z,98888.40
2023-01-19T03:00:44.542Z,98896.80
2023-01-19T03:03:41.773Z,98897.40
2023-01-19T03:06:36.422Z,98906.80
2023-01-19T03:09:31.309Z,98911.80
2023-01-19T03:12:20.389Z,98920.40
2023-01-19T03:15:03.157Z,98925.40
2023-01-19T03:17:41.599Z,98929.20
2023-01-19T03:20:29.165Z,98929.00
2023-01-19T03:23:12.458Z,98924.20
2023-01-19T03:25:53.880Z,98917.60
2023-01-19T03:28:35.399Z,98915.40
2023-01-19T03:31:18.100Z,98913.80
2023-01-19T03:33:58.477Z,98920.20
2023-01-19T03:36:41.514Z,98927.60
2023-01-19T03:39:24.418Z,98926.80
2023-01-19T03:42:05.543Z,98929.20
2023-01-19T03:44:45.328Z,98938.00
2023-01-19T03:47:22.938Z,98942.00
2023-01-19T03:50:04.549Z,98947.80
2023-01-19T03:52:41.034Z,98949.60
2023-01-19T03:55:20.185Z,98952.80
2023-01-19T03:57:57.898Z,98952.80
2023-01-19T04:00:36.116Z,98949.60
2023-01-19T04:03:19.899Z,98942.00
2023-01-19T04:05:59.616Z,98932.20
2023-01-19T04:08:35.943Z,98924.00
2023-01-19T04:11:12.582Z,98919.20
2023-01-19T04:13:49.878Z,98917.00
2023-01-19T04:16:27.067Z,98917.40
2023-01-19T04:19:04.073Z,98928.40
2023-01-19T04:21:41.341Z,98928.00
2023-01-19T04:24:20.862Z,98934.60
2023-01-19T04:26:58.768Z,98937.60
2023-01-19T04:29:35.212Z,98941.00
2023-01-19T04:32:13.556Z,98936.80
2023-01-19T04:34:50.788Z,98930.40
2023-01-19T04:37:27.966Z,98925.00
2023-01-19T04:40:05.481Z,98925.00
2023-01-19T04:42:45.417Z,98925.60
2023-01-19T04:45:22.431Z,98926.40
2023-01-19T04:48:00.100Z,98932.40
2023-01-19T04:50:37.891Z,98931.60
2023-01-19T04:53:13.972Z,98931.80
2023-01-19T04:55:55.576Z,98934.20
2023-01-19T04:58:32.678Z,98934.00
2023-01-19T05:01:13.348Z,98931.60
2023-01-19T05:03:52.356Z,98933.40
2023-01-19T05:06:29.122Z,98931.20
2023-01-19T05:09:08.097Z,98934.80
2023-01-19T05:11:45.281Z,98938.60
2023-01-19T05:14:23.183Z,98938.60
2023-01-19T05:17:01.263Z,98936.60
2023-01-19T05:19:38.456Z,98933.80
2023-01-19T05:22:15.548Z,98938.20
2023-01-19T05:24:52.374Z,98935.40
2023-01-19T05:27:29.676Z,98941.20
2023-01-19T05:30:07.902Z,98949.20
2023-01-19T05:32:44.315Z,98960.60
2023-01-19T05:35:31.401Z,98971.20
2023-01-19T05:38:14.479Z,98965.20
2023-01-19T05:40:51.961Z,98962.80
2023-01-19T05:43:29.068Z,98972.80
2023-01-19T05:46:09.452Z,98977.00
2023-01-19T05:48:47.851Z,98981.00
2023-01-19T05:51:24.608Z,98982.00
2023-01-19T05:54:02.291Z,98980.40
2023-01-19T05:56:39.483Z,98982.20
2023-01-19T05:59:22.630Z,98984.60
2023-01-19T06:02:01.138Z,98989.00
2023-01-19T06:04:41.754Z,98992.60
2023-01-19T06:07:19.188Z,98993.60
2023-01-19T06:09:55.878Z,98988.60
2023-01-19T06:12:33.435Z,98992.40
2023-01-19T06:15:15.708Z,98992.00
2023-01-19T06:17:52.880Z,98993.20
2023-01-19T06:20:29.752Z,99006.20
2023-01-19T06:23:07.876Z,99008.40
2023-01-19T06:25:45.320Z,99016.20
2023-01-19T06:28:22.095Z,99015.80
2023-01-19T06:31:00.727Z,99017.60
2023-01-19T06:33:37.771Z,99019.80
2023-01-19T06:36:17.266Z,99021.60
2023-01-19T06:38:54.152Z,99027.60
2023-01-19T06:41:30.789Z,99032.60
2023-01-19T06:44:09.086Z,99038.60
2023-01-19T06:46:46.522Z,99034.80
2023-01-19T06:49:23.557Z,99042.80
2023-01-19T06:52:00.030Z,99057.60
2023-01-19T06:54:36.753Z,99064.60
2023-01-19T06:57:14.013Z,99063.20
2023-01-19T06:59:50.442Z,99064.00
2023-01-19T07:02:28.565Z,99067.80
2023-01-19T07:05:05.165Z,99068.60
2023-01-19T07:07:43.775Z,99072.20
2023-01-19T07:10:22.980Z,99078.60
2023-01-19T07:13:02.436Z,99082.00
2023-01-19T07:15:40.410Z,99088.80
2023-01-19T07:18:17.551Z,99090.00
2023-01-19T07:20:54.503Z,99097.40
2023-01-19T07:23:31.544Z,99105.80
2023-01-19T07:26:08.765Z,99108.20
2023-01-19T07:28:47.349Z,99116.60
2023-01-19T07:31:24.795Z,99118.80
2023-01-19T07:34:01.347Z,99122.60
2023-01-19T07:36:38.519Z,99125.20
2023-01-19T07:39:15.630Z,99124.40
2023-01-19T07:41:53.394Z,99123.40
2023-01-19T07:44:30.778Z,99133.80
2023-01-19T07:47:11.274Z,99137.00
2023-01-19T07:49:48.389Z,99144.00
2023-01-19T07:52:25.395Z,99145.00
2023-01-19T07:55:01.930Z,99149.20
2023-01-19T07:57:39.592Z,99153.60
2023-01-19T08:00:25.587Z,99162.60
2023-01-19T08:03:07.223Z,99167.60
2023-01-19T08:05:45.580Z,99183.60
2023-01-19T08:08:21.628Z,99179.60
2023-01-19T08:11:11.324Z,99180.60
2023-01-19T08:13:48.461Z,99191.00
2023-01-19T08:16:28.842Z,99201.20
2023-01-19T08:19:09.500Z,99204.40
2023-01-19T08:21:48.841Z,99214.00
2023-01-19T08:24:30.707Z,99220.80
2023-01-19T08:27:11.156Z,99223.00
2023-01-19T08:29:46.971Z,99229.80
2023-01-19T08:32:23.740Z,99235.00
2023-01-19T08:35:00.692Z,99248.80
2023-01-19T08:37:38.106Z,99253.60
2023-01-19T08:40:21.560Z,99256.00
2023-01-19T08:43:02.221Z,99258.00
2023-01-19T08:45:48.347Z,99261.00
2023-01-19T08:48:25.885Z,99281.20
2023-01-19T08:51:02.962Z,99279.60
2023-01-19T08:53:39.972Z,99289.60
2023-01-19T08:56:20.353Z,99293.60
2023-01-19T08:59:08.630Z,99302.00
2023-01-19T09:01:46.518Z,99304.40
2023-01-19T09:04:23.567Z,99310.00
2023-01-19T09:07:00.783Z,99317.80
2023-01-19T09:09:43.903Z,99313.00
2023-01-19T09:12:20.808Z,99315.00
2023-01-19T09:14:59.285Z,99319.20
2023-01-19T09:17:35.996Z,99321.00
2023-01-19T09:20:17.498Z,99322.60
2023-01-19T09:22:54.607Z,99324.40
2023-01-19T09:25:32.316Z,99325.00
2023-01-19T09:28:11.426Z,99334.00
2023-01-19T09:30:48.744Z,99341.40
2023-01-19T09:33:27.821Z,99350.60
2023-01-19T09:36:04.504Z,99354.00
2023-01-19T09:38:41.041Z,99358.40
2023-01-19T09:41:26.324Z,99364.40
2023-01-19T09:44:04.983Z,99382.60
2023-01-19T09:46:45.674Z,99389.20
2023-01-19T09:49:28.326Z,99399.00
2023-01-19T09:52:06.200Z,99395.80
2023-01-19T09:54:50.006Z,99414.80
2023-01-19T09:57:27.729Z,99416.40
2023-01-19T10:00:04.443Z,99417.40
2023-01-19T10:02:55.932Z,99423.40
2023-01-19T10:05:42.602Z,99423.80
2023-01-19T10:08:33.376Z,99425.80
2023-01-19T10:11:20.524Z,99421.60
2023-01-19T10:13:58.588Z,99422.40
2023-01-19T10:16:45.571Z,99428.20
2023-01-19T10:19:29.720Z,99434.60
2023-01-19T10:22:26.709Z,99437.80
2023-01-19T10:25:06.330Z,99428.60
2023-01-19T10:27:43.253Z,99425.00
2023-01-19T10:30:29.877Z,99431.20
2023-01-19T10:33:05.971Z,99429.20
2023-01-19T10:35:43.030Z,99427.80
2023-01-19T10:38:22.519Z,99424.20
2023-01-19T10:41:08.683Z,99422.60
2023-01-19T10:43:47.971Z,99425.40
2023-01-19T10:46:36.269Z,99424.20
2023-01-19T10:49:27.647Z,99421.00
2023-01-19T10:52:06.302Z,99418.60
2023-01-19T10:54:48.538Z,99421.80
2023-01-19T10:57:33.300Z,99427.00
2023-01-19T11:00:31.755Z,99423.00
2023-01-19T11:03:25.567Z,99419.80
2023-01-19T11:06:26.125Z,99412.20
2023-01-19T11:09:21.389Z,99401.00
2023-01-19T11:11:58.864Z,99385.60
2023-01-19T11:14:38.198Z,99377.00
2023-01-19T11:17:28.110Z,99363.80
2023-01-19T11:20:07.955Z,99366.60
2023-01-19T11:22:44.867Z,99361.80
2023-01-19T11:25:32.921Z,99359.20
2023-01-19T11:28:18.810Z,99358.80
2023-01-19T11:31:18.765Z,99355.20
2023-01-19T11:34:00.012Z,99357.00
2023-01-19T11:36:38.211Z,99345.20
2023-01-19T11:39:29.937Z,99345.20
2023-01-19T11:42:13.003Z,99345.60
2023-01-19T11:45:00.956Z,99346.40
2023-01-19T11:47:41.300Z,99347.80
2023-01-19T11:50:30.997Z,99337.60
2023-01-19T11:53:17.252Z,99341.40
2023-01-19T11:56:03.094Z,99339.60
2023-01-19T11:58:42.714Z,99333.00
2023-01-19T12:01:27.040Z,99328.20
2023-01-19T12:04:10.286Z,99326.40
2023-01-19T12:06:49.795Z,99322.00
2023-01-19T12:09:30.702Z,99326.60
2023-01-19T12:12:22.129Z,99327.40
2023-01-19T12:15:07.932Z,99323.20
2023-01-19T12:17:51.101Z,99325.80
2023-01-19T12:20:38.500Z,99325.80
2023-01-19T12:23:32.122Z,99322.40
2023-01-19T12:26:43.595Z,99321.20
2023-01-19T12:29:24.804Z,99318.40
2023-01-19T12:32:35.530Z,99321.80
2023-01-19T12:35:27.453Z,99317.20
2023-01-19T12:38:03.671Z,99318.40
2023-01-19T12:40:40.492Z,99314.80
2023-01-19T12:43:24.272Z,99316.20
2023-01-19T12:46:03.893Z,99309.80
2023-01-19T12:48:40.797Z,99312.60
2023-01-19T12:51:33.240Z,99316.20
2023-01-19T12:54:21.795Z,99314.00
2023-01-19T12:57:09.657Z,99316.80
2023-01-19T12:59:47.253Z,99318.80
2023-01-19T13:02:56.427Z,99320.20
2023-01-19T13:05:58.315Z,99325.00
2023-01-19T13:09:04.607Z,99325.00
2023-01-19T13:12:16.708Z,99327.00
2023-01-19T13:14:53.294Z,99328.40
2023-01-19T13:17:48.524Z,99335.60
2023-01-19T13:20:46.760Z,99330.40
2023-01-19T13:23:52.208Z,99338.00
2023-01-19T13:26:31.243Z,99334.40
2023-01-19T13:29:25.587Z,99347.00
2023-01-19T13:32:04.569Z,99342.20
2023-01-19T13:34:53.712Z,99349.60
2023-01-19T13:37:37.866Z,99353.20
2023-01-19T13:40:27.800Z,99361.00
2023-01-19T13:43:05.372Z,99373.20
2023-01-19T13:45:52.371Z,99362.00
2023-01-19T13:48:29.895Z,99364.40
2023-01-19T13:51:19.935Z,99372.20
2023-01-19T13:54:03.853Z,99375.20
2023-01-19T13:56:45.013Z,99367.60
2023-01-19T13:59:21.565Z,99378.00
2023-01-19T14:01:58.387Z,99384.00
2023-01-19T14:04:39.198Z,99381.40
2023-01-19T14:07:28.827Z,99375.20
2023-01-19T14:10:20.092Z,99378.00
2023-01-19T14:13:07.880Z,99373.20
2023-01-19T14:15:46.210Z,99387.00
2023-01-19T14:18:38.854Z,99385.40
2023-01-19T14:21:16.580Z,99400.80
2023-01-19T14:23:57.818Z,99394.60
2023-01-19T14:26:53.218Z,99390.80
2023-01-19T14:29:34.056Z,99394.80
2023-01-19T14:32:20.594Z,99405.00
2023-01-19T14:35:16.724Z,99395.40
2023-01-19T14:37:57.657Z,99399.80
2023-01-19T14:40:34.746Z,99401.40
2023-01-19T14:43:16.267Z,99407.80
2023-01-19T14:45:54.890Z,99417.80
2023-01-19T14:48:31.605Z,99415.80
2023-01-19T14:51:24.589Z,99412.80
2023-01-19T14:54:04.287Z,99417.80
2023-01-19T14:56:40.914Z,99418.60
2023-01-19T14:59:18.202Z,99415.40
2023-01-19T15:01:55.290Z,99419.80
2023-01-19T15:04:32.549Z,99415.40
2023-01-19T15:07:09.799Z,99422.20
2023-01-19T15:09:46.271Z,99432.60
2023-01-19T15:12:24.808Z,99430.80
2023-01-19T15:15:02.068Z,99430.80
2023-01-19T15:17:38.743Z,99425.20
2023-01-19T15:20:23.209Z,99439.40
2023-01-19T15:22:59.729Z,99432.00
2023-01-19T15:25:36.466Z,99431.60
2023-01-19T15:28:18.402Z,99428.40
2023-01-19T15:30:56.316Z,99430.60
2023-01-19T15:33:34.085Z,99430.20
2023-01-19T15:36:12.773Z,99437.20
2023-01-19T15:38:50.501Z,99439.00
2023-01-19T15:41:31.177Z,99441.20
2023-01-19T15:44:08.557Z,99450.60
2023-01-19T15:46:45.728Z,99449.00
2023-01-19T15:49:22.107Z,99453.60
2023-01-19T15:51:59.310Z,99455.40
2023-01-19T15:54:35.841Z,99458.00
2023-01-19T15:57:13.563Z,99459.00
2023-01-19T15:59:51.749Z,99459.80
2023-01-19T16:03:55.060Z,99462.40
2023-01-19T16:06:32.238Z,99459.20
2023-01-19T16:09:09.873Z,99467.20
2023-01-19T16:11:45.902Z,99470.20
2023-01-19T16:14:25.979Z,99475.20
2023-01-19T16:17:02.863Z,99475.00
2023-01-19T16:19:43.569Z,99476.00
2023-01-19T16:22:20.370Z,99474.80
2023-01-19T16:24:57.523Z,99477.80
2023-01-19T16:27:35.076Z,99478.60
2023-01-19T16:30:17.267Z,99478.60
2023-01-19T16:32:55.579Z,99486.40
2023-01-19T16:35:32.300Z,99484.00
2023-01-19T16:38:09.539Z,99485.00
2023-01-19T16:40:48.163Z,99485.60
2023-01-19T16:43:25.914Z,99492.00
2023-01-19T16:46:08.840Z,99495.20
2023-01-19T16:48:47.199Z,99506.60
2023-01-19T16:51:23.904Z,99510.80
2023-01-19T16:54:00.348Z,99518.40
2023-01-19T16:56:36.774Z,99519.60
2023-01-19T16:59:19.732Z,99528.40
2023-01-19T17:01:58.231Z,99530.80
2023-01-19T17:04:35.668Z,99534.00
2023-01-19T17:07:12.749Z,99537.40
2023-01-19T17:09:49.764Z,99545.80
2023-01-19T17:12:26.461Z,99552.00
2023-01-19T17:15:03.119Z,99555.60
2023-01-19T17:17:40.046Z,99560.80
2023-01-19T17:20:22.303Z,99567.40
2023-01-19T17:22:58.550Z,99567.20
2023-01-19T17:25:35.587Z,99569.60
2023-01-19T17:28:12.860Z,99574.40
2023-01-19T17:30:49.759Z,99569.40
2023-01-19T17:33:28.370Z,99566.60
2023-01-19T17:36:14.542Z,99567.60
2023-01-19T17:38:51.280Z,99569.60
2023-01-19T17:41:29.329Z,99569.00
2023-01-19T17:44:07.698Z,99570.20
2023-01-19T17:46:45.030Z,99570.00
2023-01-19T17:49:20.894Z,99571.80
2023-01-19T17:51:59.455Z,99563.00
2023-01-19T17:54:35.822Z,99567.00
2023-01-19T17:57:13.105Z,99574.20
2023-01-19T17:59:50.216Z,99565.40
2023-01-19T18:02:27.048Z,99575.80
2023-01-19T18:05:03.498Z,99578.00
2023-01-19T18:07:40.260Z,99576.60
2023-01-19T18:10:20.337Z,99581.60
2023-01-19T18:12:59.215Z,99580.00
2023-01-19T18:15:36.809Z,99587.20
2023-01-19T18:18:21.164Z,99582.80
2023-01-19T18:21:00.032Z,99592.20
2023-01-19T18:23:36.765Z,99596.60
2023-01-19T18:26:16.970Z,99589.40
2023-01-19T18:28:57.457Z,99581.80
2023-01-19T18:31:34.543Z,99584.60
2023-01-19T18:34:10.775Z,99588.40
2023-01-19T18:36:48.213Z,99588.60
2023-01-19T18:39:24.305Z,99582.40
2023-01-19T18:42:00.713Z,99576.00
2023-01-19T18:44:37.924Z,99578.80
2023-01-19T18:47:14.338Z,99573.60
2023-01-19T18:49:53.630Z,99575.00
2023-01-19T18:52:30.138Z,99576.60
2023-01-19T18:55:07.084Z,99575.60
2023-01-19T18:57:43.887Z,99574.20
2023-01-19T19:00:25.896Z,99578.40
2023-01-19T19:03:03.448Z,99578.80
2023-01-19T19:05:40.870Z,99565.40
2023-01-19T19:08:19.649Z,99568.60
2023-01-19T19:10:57.114Z,99572.20
2023-01-19T19:13:33.986Z,99564.20
2023-01-19T19:16:14.981Z,99564.00
2023-01-19T19:18:51.263Z,99562.20
2023-01-19T19:21:30.567Z,99563.00
2023-01-19T19:24:07.651Z,99562.60
2023-01-19T19:26:44.497Z,99560.00
2023-01-19T19:29:21.225Z,99560.20
2023-01-19T19:31:58.153Z,99556.00
2023-01-19T19:34:35.859Z,99555.40
2023-01-19T19:37:12.513Z,99555.60
2023-01-19T19:39:49.577Z,99557.40
2023-01-19T19:42:26.646Z,99557.00
2023-01-19T19:45:02.919Z,99566.00
2023-01-19T19:47:39.564Z,99565.60
2023-01-19T19:50:20.036Z,99563.20
2023-01-19T19:52:58.799Z,99564.00
2023-01-19T19:55:35.667Z,99568.20
2023-01-19T19:58:12.635Z,99570.80
2023-01-19T20:00:49.505Z,99567.60
2023-01-19T20:03:28.554Z,99562.60
2023-01-19T20:06:10.892Z,99566.20
2023-01-19T20:08:47.861Z,99564.00
2023-01-19T20:11:26.760Z,99566.20
2023-01-19T20:14:07.157Z,99567.60
2023-01-19T20:16:44.675Z,99571.60
2023-01-19T20:19:21.853Z,99577.00
2023-01-19T20:21:58.543Z,99579.20
2023-01-19T20:24:38.143Z,99582.40
2023-01-19T20:27:15.008Z,99584.40
2023-01-19T20:29:58.288Z,99586.20
2023-01-19T20:32:35.628Z,99588.80
2023-01-19T20:35:13.714Z,99590.80
2023-01-19T20:37:50.570Z,99595.00
2023-01-19T20:40:27.042Z,99596.60
2023-01-19T20:43:06.805Z,99596.80
2023-01-19T20:45:44.625Z,99595.80
2023-01-19T20:48:21.728Z,99603.00
2023-01-19T20:51:05.810Z,99607.00
2023-01-19T20:53:43.909Z,99614.60
2023-01-19T20:56:21.610Z,99621.40
2023-01-19T20:58:58.144Z,99621.60
2023-01-19T21:01:34.516Z,99626.40
2023-01-19T21:04:12.492Z,99625.80
2023-01-19T21:06:49.461Z,99631.40
2023-01-19T21:09:27.549Z,99628.00
2023-01-19T21:12:04.267Z,99631.40
2023-01-19T21:14:42.690Z,99637.00
2023-01-19T21:17:19.473Z,99642.80
2023-01-19T21:19:59.208Z,99641.60
2023-01-19T21:22:37.129Z,99637.80
2023-01-19T21:25:16.586Z,99638.20
2023-01-19T21:27:53.638Z,99645.80
2023-01-19T21:30:29.594Z,99651.20
2023-01-19T21:33:07.216Z,99647.40
2023-01-19T21:35:51.649Z,99646.20
2023-01-19T21:38:29.532Z,99643.40
2023-01-19T21:41:11.995Z,99646.60
2023-01-19T21:43:49.122Z,99636.00
2023-01-19T21:46:29.956Z,99638.40
2023-01-19T21:49:07.655Z,99641.60
2023-01-19T21:51:47.768Z,99650.40
2023-01-19T21:54:24.107Z,99651.40
2023-01-19T21:57:01.341Z,99647.20
2023-01-19T21:59:38.560Z,99654.60
2023-01-19T22:02:29.802Z,99656.00
2023-01-19T22:05:13.014Z,99662.60
2023-01-19T22:07:48.951Z,99660.20
2023-01-19T22:10:27.111Z,99663.20
2023-01-19T22:13:03.638Z,99668.00
2023-01-19T22:15:39.756Z,99672.00
2023-01-19T22:18:17.776Z,99670.20
2023-01-19T22:20:54.644Z,99670.20
2023-01-19T22:23:31.042Z,99671.60
2023-01-19T22:26:08.908Z,99676.20
2023-01-19T22:28:46.001Z,99676.80
2023-01-19T22:31:24.847Z,99678.00
2023-01-19T22:34:02.622Z,99683.60
2023-01-19T22:36:40.288Z,99683.80
2023-01-19T22:39:17.976Z,99682.80
2023-01-19T22:41:55.017Z,99682.60
2023-01-19T22:44:32.082Z,99680.20
2023-01-19T22:47:08.939Z,99672.00
2023-01-19T22:49:45.349Z,99677.40
2023-01-19T22:52:21.985Z,99672.00
2023-01-19T22:54:59.551Z,99677.40
2023-01-19T22:57:39.915Z,99677.00
2023-01-19T23:00:27.508Z,99686.60
2023-01-19T23:03:03.821Z,99687.80
2023-01-19T23:05:44.095Z,99687.40
2023-01-19T23:08:20.613Z,99686.60
2023-01-19T23:10:57.875Z,99689.40
2023-01-19T23:13:35.412Z,99684.00
2023-01-19T23:16:15.009Z,99691.40
2023-01-19T23:18:55.370Z,99692.80
2023-01-19T23:21:34.637Z,99701.20
2023-01-19T23:24:13.821Z,99702.00
2023-01-19T23:26:51.034Z,99701.80
2023-01-19T23:29:28.259Z,99697.00
2023-01-19T23:32:05.178Z,99706.60
2023-01-19T23:34:41.487Z,99705.00
2023-01-19T23:37:17.742Z,99704.40
2023-01-19T23:39:54.818Z,99704.20
2023-01-19T23:42:31.089Z,99702.60
2023-01-19T23:45:07.925Z,99703.20
2023-01-19T23:47:45.009Z,99699.60
2023-01-19T23:50:23.067Z,99698.80
2023-01-19T23:52:59.683Z,99706.40
2023-01-19T23:55:36.852Z,99712.40
2023-01-19T23:58:13.084Z,99712.40
